Time;durP1;ratioP1;P1;durP2;ratioP2;P2;SDS_P1;SDS_P2;PMS_P1;PMS_P2;Temp;Humidity;BMP_temperature;BMP_pressure;BME280_temperature;BME280_humidity;BME280_pressure;Samples;Min_cycle;Max_cycle;Signal;HPM_P1;HPM_P2
2021/07/03 00:01:47;;;;;;;0.30;0.30;;;;;;;;;;4898041;29;20028;-43
2021/07/03 00:04:12;;;;;;;1.13;0.50;;;;;;;;;;4897779;29;20037;-43
2021/07/03 00:06:37;;;;;;;0.65;0.28;;;;;;;;;;4897961;29;20025;-43
2021/07/03 00:09:03;;;;;;;1.75;0.25;;;;;;;;;;4897830;29;20111;-44
2021/07/03 00:11:28;;;;;;;0.55;0.22;;;;;;;;;;4897628;29;20027;-43
2021/07/03 00:13:53;;;;;;;0.47;0.30;;;;;;;;;;4897516;29;20044;-43
2021/07/03 00:16:19;;;;;;;1.45;0.40;;;;;;;;;;4897539;29;20043;-45
2021/07/03 00:18:44;;;;;;;0.93;0.43;;;;;;;;;;4897561;29;20031;-43
2021/07/03 00:21:10;;;;;;;0.60;0.60;;;;;;;;;;4897393;29;20383;-43
2021/07/03 00:23:35;;;;;;;0.88;0.30;;;;;;;;;;4897567;29;20044;-43
2021/07/03 00:26:00;;;;;;;1.15;0.47;;;;;;;;;;4897514;29;20076;-43
2021/07/03 00:28:26;;;;;;;2.75;0.30;;;;;;;;;;4896085;29;20067;-43
2021/07/03 00:30:51;;;;;;;0.25;0.25;;;;;;;;;;4897341;29;20468;-43
2021/07/03 00:33:16;;;;;;;0.60;0.30;;;;;;;;;;4897540;29;20028;-43
2021/07/03 00:35:42;;;;;;;1.15;0.55;;;;;;;;;;4897542;29;20080;-43
2021/07/03 00:38:08;;;;;;;0.68;0.40;;;;;;;;;;4897039;29;20108;-43
2021/07/03 00:40:33;;;;;;;0.55;0.30;;;;;;;;;;4897590;29;20107;-43
2021/07/03 00:42:59;;;;;;;1.85;0.30;;;;;;;;;;4897559;29;20475;-42
2021/07/03 00:45:25;;;;;;;0.50;0.30;;;;;;;;;;4897112;29;20048;-43
2021/07/03 00:47:53;;;;;;;0.43;0.43;;;;;;;;;;4897319;29;20373;-43
2021/07/03 00:50:19;;;;;;;1.02;0.60;;;;;;;;;;4895858;29;20476;-43
2021/07/03 00:52:46;;;;;;;0.40;0.38;;;;;;;;;;4897243;29;20399;-43
2021/07/03 00:55:18;;;;;;;0.45;0.40;;;;;;;;;;4895868;29;20064;-43
2021/07/03 00:57:45;;;;;;;0.52;0.40;;;;;;;;;;4895877;29;20035;-43
2021/07/03 01:00:11;;;;;;;1.00;0.68;;;;;;;;;;4897294;29;20115;-44
2021/07/03 01:02:38;;;;;;;0.30;0.30;;;;;;;;;;4897318;29;20395;-44
2021/07/03 01:05:05;;;;;;;0.40;0.30;;;;;;;;;;4897053;29;20024;-44
2021/07/03 01:07:32;;;;;;;0.68;0.30;;;;;;;;;;4897395;29;20025;-43
2021/07/03 01:09:57;;;;;;;2.72;0.40;;;;;;;;;;4895712;29;20083;-43
2021/07/03 01:12:23;;;;;;;0.75;0.40;;;;;;;;;;4880213;29;20036;-43
2021/07/03 01:14:49;;;;;;;0.50;0.40;;;;;;;;;;4895701;29;20135;-43
2021/07/03 01:17:19;;;;;;;2.42;0.50;;;;;;;;;;4895620;29;20092;-43
2021/07/03 01:19:45;;;;;;;3.50;0.65;;;;;;;;;;4896980;29;20476;-44
2021/07/03 01:22:13;;;;;;;0.57;0.30;;;;;;;;;;4897141;29;20401;-43
2021/07/03 01:24:39;;;;;;;0.85;0.30;;;;;;;;;;4895960;29;20052;-43
2021/07/03 01:27:06;;;;;;;2.05;0.47;;;;;;;;;;4895585;29;20041;-43
2021/07/03 01:29:32;;;;;;;0.77;0.68;;;;;;;;;;4897104;29;20048;-43
2021/07/03 01:31:59;;;;;;;0.73;0.35;;;;;;;;;;4896850;29;20036;-43
2021/07/03 01:34:26;;;;;;;2.05;0.52;;;;;;;;;;4895439;29;20488;-43
2021/07/03 01:36:52;;;;;;;0.45;0.30;;;;;;;;;;4896833;29;20107;-43
2021/07/03 01:39:18;;;;;;;0.75;0.43;;;;;;;;;;4895011;29;20071;-43
2021/07/03 01:41:43;;;;;;;3.92;0.85;;;;;;;;;;4895653;29;20029;-43
2021/07/03 01:44:12;;;;;;;0.95;0.50;;;;;;;;;;4895465;29;20064;-43
2021/07/03 01:46:38;;;;;;;1.25;0.40;;;;;;;;;;4896694;29;20052;-43
2021/07/03 01:49:05;;;;;;;0.85;0.50;;;;;;;;;;4896616;29;20033;-43
2021/07/03 01:51:51;;;;;;;0.77;0.50;;;;;;;;;;4896491;29;20044;-43
2021/07/03 01:54:17;;;;;;;0.40;0.40;;;;;;;;;;4895259;29;20045;-43
2021/07/03 01:56:57;;;;;;;2.13;0.20;;;;;;;;;;4896457;29;20464;-43
2021/07/03 01:59:32;;;;;;;0.47;0.43;;;;;;;;;;4898687;29;20029;-42
2021/07/03 02:02:02;;;;;;;0.57;0.50;;;;;;;;;;4898755;29;20044;-43
2021/07/03 02:04:31;;;;;;;1.65;0.77;;;;;;;;;;4898710;29;20033;-43
2021/07/03 02:06:59;;;;;;;2.58;0.50;;;;;;;;;;4900152;29;20035;-44
2021/07/03 02:09:29;;;;;;;1.40;0.50;;;;;;;;;;4898600;29;20024;-43
2021/07/03 02:12:00;;;;;;;0.40;0.30;;;;;;;;;;4898534;29;20484;-43
2021/07/03 02:14:34;;;;;;;1.75;0.70;;;;;;;;;;4899639;29;20044;-44
2021/07/03 02:17:14;;;;;;;2.72;0.90;;;;;;;;;;4898461;29;20556;-44
2021/07/03 02:19:40;;;;;;;0.50;0.40;;;;;;;;;;4898417;29;20128;-43
2021/07/03 02:22:08;;;;;;;5.18;0.50;;;;;;;;;;4898239;29;20020;-43
2021/07/03 02:24:42;;;;;;;0.43;0.40;;;;;;;;;;4898402;29;20037;-44
2021/07/03 02:27:09;;;;;;;1.95;0.43;;;;;;;;;;4899749;29;20033;-44
2021/07/03 02:29:35;;;;;;;1.38;0.50;;;;;;;;;;4899716;29;20035;-44
2021/07/03 02:32:00;;;;;;;0.68;0.50;;;;;;;;;;4898251;29;20028;-44
2021/07/03 02:34:26;;;;;;;0.43;0.32;;;;;;;;;;4899288;29;20388;-44
2021/07/03 02:36:52;;;;;;;0.45;0.30;;;;;;;;;;4898090;29;20060;-43
2021/07/03 02:39:18;;;;;;;1.85;0.65;;;;;;;;;;4897832;29;20088;-44
2021/07/03 02:41:50;;;;;;;4.10;0.52;;;;;;;;;;4898105;29;20490;-44
2021/07/03 02:44:16;;;;;;;0.32;0.30;;;;;;;;;;4897855;29;20037;-44
2021/07/03 02:46:42;;;;;;;0.75;0.70;;;;;;;;;;4897921;29;20081;-44
2021/07/03 02:49:07;;;;;;;1.20;0.40;;;;;;;;;;4897780;29;20123;-43
2021/07/03 02:51:34;;;;;;;0.63;0.60;;;;;;;;;;4897791;29;20064;-44
2021/07/03 02:54:01;;;;;;;4.13;0.85;;;;;;;;;;4899025;29;20045;-43
2021/07/03 02:56:27;;;;;;;4.50;0.60;;;;;;;;;;4898944;29;20075;-43
2021/07/03 02:58:52;;;;;;;0.75;0.45;;;;;;;;;;4898886;29;20083;-43
2021/07/03 03:01:18;;;;;;;0.73;0.50;;;;;;;;;;4898881;29;20080;-43
2021/07/03 03:03:43;;;;;;;1.13;0.50;;;;;;;;;;4898884;29;20090;-43
2021/07/03 03:06:11;;;;;;;1.00;0.60;;;;;;;;;;4897467;29;20108;-43
2021/07/03 03:08:37;;;;;;;0.93;0.50;;;;;;;;;;4896400;29;20510;-43
2021/07/03 03:11:04;;;;;;;0.68;0.50;;;;;;;;;;4897447;29;20056;-43
2021/07/03 03:13:30;;;;;;;1.38;0.63;;;;;;;;;;4897375;29;20063;-43
2021/07/03 03:15:55;;;;;;;0.60;0.55;;;;;;;;;;4897448;29;20067;-43
2021/07/03 03:18:21;;;;;;;1.30;0.43;;;;;;;;;;4897189;29;20365;-43
2021/07/03 03:20:47;;;;;;;0.45;0.40;;;;;;;;;;4881927;29;20032;-43
2021/07/03 03:23:12;;;;;;;1.05;0.80;;;;;;;;;;4898687;29;20052;-44
2021/07/03 03:25:38;;;;;;;4.60;0.75;;;;;;;;;;4897192;29;20388;-43
2021/07/03 03:28:05;;;;;;;2.55;0.55;;;;;;;;;;4897145;29;20480;-44
2021/07/03 03:30:30;;;;;;;0.65;0.52;;;;;;;;;;4898306;29;20059;-45
2021/07/03 03:32:57;;;;;;;1.02;0.77;;;;;;;;;;4897086;29;20055;-44
2021/07/03 03:35:22;;;;;;;0.70;0.60;;;;;;;;;;4896919;29;20500;-44
2021/07/03 03:37:50;;;;;;;1.33;0.50;;;;;;;;;;4897024;29;20064;-43
2021/07/03 03:40:20;;;;;;;0.85;0.50;;;;;;;;;;4896735;29;20136;-44
2021/07/03 03:42:46;;;;;;;1.20;0.90;;;;;;;;;;4896978;29;20133;-43
2021/07/03 03:45:12;;;;;;;1.52;0.40;;;;;;;;;;4896834;29;20052;-43
2021/07/03 03:47:38;;;;;;;1.17;0.70;;;;;;;;;;4897921;29;20040;-43
2021/07/03 03:50:06;;;;;;;0.93;0.82;;;;;;;;;;4896730;29;20020;-43
2021/07/03 03:52:32;;;;;;;1.75;0.70;;;;;;;;;;4896794;29;20033;-43
2021/07/03 03:54:58;;;;;;;2.90;0.50;;;;;;;;;;4897895;29;20180;-43
2021/07/03 03:57:32;;;;;;;0.57;0.43;;;;;;;;;;4896614;29;20029;-42
2021/07/03 04:00:09;;;;;;;0.85;0.68;;;;;;;;;;4896547;29;20132;-43
2021/07/03 04:02:41;;;;;;;0.77;0.60;;;;;;;;;;4898358;29;20043;-43
2021/07/03 04:05:07;;;;;;;0.57;0.47;;;;;;;;;;4897743;29;20024;-43
2021/07/03 04:07:32;;;;;;;1.55;0.82;;;;;;;;;;4896480;29;20028;-43
2021/07/03 04:09:58;;;;;;;1.30;0.70;;;;;;;;;;4896352;29;20028;-43
2021/07/03 04:12:24;;;;;;;1.27;0.65;;;;;;;;;;4897899;29;20024;-43
2021/07/03 04:14:50;;;;;;;0.63;0.52;;;;;;;;;;4896299;29;20041;-43
2021/07/03 04:17:15;;;;;;;0.90;0.80;;;;;;;;;;4897550;29;20020;-43
2021/07/03 04:19:41;;;;;;;2.70;0.70;;;;;;;;;;4897467;29;20072;-43
2021/07/03 04:22:06;;;;;;;0.90;0.47;;;;;;;;;;4897463;29;20024;-43
2021/07/03 04:24:32;;;;;;;2.50;1.27;;;;;;;;;;4897556;29;20075;-43
2021/07/03 04:26:57;;;;;;;0.77;0.63;;;;;;;;;;4897491;29;20029;-44
2021/07/03 04:29:22;;;;;;;0.50;0.50;;;;;;;;;;4897562;29;20036;-43
2021/07/03 04:31:48;;;;;;;1.35;0.70;;;;;;;;;;4897455;29;20017;-43
2021/07/03 04:34:13;;;;;;;1.17;0.80;;;;;;;;;;4897247;29;20044;-44
2021/07/03 04:36:39;;;;;;;0.93;0.60;;;;;;;;;;4897554;29;20044;-43
2021/07/03 04:39:04;;;;;;;1.88;0.88;;;;;;;;;;4897196;29;20500;-43
2021/07/03 04:41:29;;;;;;;1.33;0.57;;;;;;;;;;4897189;29;20424;-43
2021/07/03 04:43:55;;;;;;;1.05;0.50;;;;;;;;;;4880566;29;20072;-43
2021/07/03 04:46:20;;;;;;;4.50;0.68;;;;;;;;;;4897210;29;20028;-43
2021/07/03 04:48:46;;;;;;;0.90;0.70;;;;;;;;;;4897449;29;20388;-43
2021/07/03 04:51:11;;;;;;;2.97;0.70;;;;;;;;;;4897359;29;20021;-43
2021/07/03 04:53:37;;;;;;;0.60;0.60;;;;;;;;;;4897326;29;20384;-44
2021/07/03 04:56:02;;;;;;;1.92;0.50;;;;;;;;;;4897255;29;20379;-43
2021/07/03 04:58:27;;;;;;;1.45;0.77;;;;;;;;;;4897270;29;20060;-43
2021/07/03 05:00:53;;;;;;;1.35;0.68;;;;;;;;;;4897128;29;20028;-43
2021/07/03 05:03:18;;;;;;;1.42;0.60;;;;;;;;;;4897398;29;20040;-43
2021/07/03 05:05:43;;;;;;;2.67;0.50;;;;;;;;;;4895836;29;20388;-44
2021/07/03 05:08:09;;;;;;;1.10;0.88;;;;;;;;;;4896908;29;20024;-43
2021/07/03 05:10:34;;;;;;;0.80;0.80;;;;;;;;;;4897426;29;20032;-43
2021/07/03 05:12:59;;;;;;;0.73;0.50;;;;;;;;;;4897223;29;20052;-43
2021/07/03 05:15:27;;;;;;;1.50;0.60;;;;;;;;;;4897186;29;20494;-43
2021/07/03 05:17:52;;;;;;;0.60;0.55;;;;;;;;;;4897249;29;20039;-43
2021/07/03 05:20:17;;;;;;;1.33;1.08;;;;;;;;;;4896798;29;20388;-44
2021/07/03 05:22:43;;;;;;;2.95;0.90;;;;;;;;;;4897274;29;20108;-43
2021/07/03 05:25:09;;;;;;;6.05;1.23;;;;;;;;;;4897080;29;20020;-43
2021/07/03 05:27:34;;;;;;;2.25;0.80;;;;;;;;;;4896911;29;20032;-43
2021/07/03 05:30:00;;;;;;;0.77;0.60;;;;;;;;;;4896842;29;20345;-43
2021/07/03 05:32:25;;;;;;;2.45;0.80;;;;;;;;;;4898790;29;20080;-43
2021/07/03 05:34:50;;;;;;;0.77;0.70;;;;;;;;;;4900401;29;20028;-42
2021/07/03 05:37:16;;;;;;;1.23;0.80;;;;;;;;;;4900356;29;20036;-43
2021/07/03 05:39:41;;;;;;;1.55;1.02;;;;;;;;;;4900299;29;20130;-43
2021/07/03 05:42:07;;;;;;;0.75;0.65;;;;;;;;;;4900249;29;20457;-44
2021/07/03 05:44:32;;;;;;;1.95;1.00;;;;;;;;;;4900328;29;20016;-43
2021/07/03 05:46:57;;;;;;;1.73;0.90;;;;;;;;;;4900353;29;20388;-43
2021/07/03 05:49:23;;;;;;;2.08;0.90;;;;;;;;;;4900229;29;20103;-44
2021/07/03 05:51:50;;;;;;;1.63;1.00;;;;;;;;;;4900455;29;20449;-43
2021/07/03 05:54:17;;;;;;;1.45;0.85;;;;;;;;;;4898717;29;20041;-43
2021/07/03 05:56:43;;;;;;;1.10;0.80;;;;;;;;;;4900329;29;20108;-43
2021/07/03 05:59:08;;;;;;;1.33;0.80;;;;;;;;;;4899948;29;20063;-43
2021/07/03 06:01:34;;;;;;;4.13;0.68;;;;;;;;;;4899952;29;20545;-43
2021/07/03 06:04:00;;;;;;;1.42;0.50;;;;;;;;;;4900256;29;20028;-42
2021/07/03 06:06:26;;;;;;;2.45;0.80;;;;;;;;;;4900144;29;20459;-43
2021/07/03 06:08:51;;;;;;;0.88;0.77;;;;;;;;;;4900042;29;20035;-43
2021/07/03 06:11:16;;;;;;;1.83;0.80;;;;;;;;;;4899862;29;20039;-43
2021/07/03 06:13:42;;;;;;;1.30;0.95;;;;;;;;;;4899723;29;20024;-43
2021/07/03 06:16:07;;;;;;;2.05;1.17;;;;;;;;;;4899557;29;20464;-43
2021/07/03 06:18:33;;;;;;;1.05;0.80;;;;;;;;;;4899779;29;20052;-43
2021/07/03 06:20:58;;;;;;;1.10;0.70;;;;;;;;;;4899697;29;20516;-43
2021/07/03 06:23:25;;;;;;;1.20;0.90;;;;;;;;;;4899787;29;20085;-43
2021/07/03 06:25:50;;;;;;;1.45;0.95;;;;;;;;;;4899633;29;20039;-43
2021/07/03 06:28:15;;;;;;;0.88;0.60;;;;;;;;;;4899475;29;20017;-45
2021/07/03 06:30:41;;;;;;;1.48;1.17;;;;;;;;;;4899584;29;20107;-43
2021/07/03 06:33:06;;;;;;;4.03;0.70;;;;;;;;;;4898359;29;20016;-42
2021/07/03 06:35:32;;;;;;;1.10;0.90;;;;;;;;;;4899569;29;20048;-43
2021/07/03 06:37:57;;;;;;;1.63;0.98;;;;;;;;;;4899256;29;20025;-43
2021/07/03 06:40:22;;;;;;;2.10;0.80;;;;;;;;;;4899251;29;20117;-43
2021/07/03 06:42:48;;;;;;;0.85;0.70;;;;;;;;;;4899397;29;20040;-43
2021/07/03 06:45:13;;;;;;;0.82;0.82;;;;;;;;;;4899403;29;20036;-45
2021/07/03 06:47:39;;;;;;;1.00;0.80;;;;;;;;;;4899173;29;20052;-43
2021/07/03 06:50:05;;;;;;;1.35;1.05;;;;;;;;;;4899430;29;20040;-43
2021/07/03 06:52:30;;;;;;;4.65;1.45;;;;;;;;;;4899255;29;20028;-43
2021/07/03 06:54:55;;;;;;;1.42;0.63;;;;;;;;;;4899046;29;20041;-43
2021/07/03 06:57:21;;;;;;;1.20;0.90;;;;;;;;;;4899017;29;20485;-43
2021/07/03 06:59:46;;;;;;;1.42;0.68;;;;;;;;;;4899131;29;20036;-43
2021/07/03 07:02:12;;;;;;;0.93;0.70;;;;;;;;;;4898966;29;20547;-42
2021/07/03 07:04:37;;;;;;;5.03;1.70;;;;;;;;;;4898945;29;20097;-43
2021/07/03 07:07:02;;;;;;;1.65;0.73;;;;;;;;;;4898778;29;20020;-43
2021/07/03 07:09:28;;;;;;;1.38;0.85;;;;;;;;;;4898943;29;20037;-42
2021/07/03 07:11:56;;;;;;;3.60;0.98;;;;;;;;;;4898708;29;20046;-43
2021/07/03 07:14:22;;;;;;;2.97;0.70;;;;;;;;;;4898557;29;20623;-43
2021/07/03 07:16:47;;;;;;;0.93;0.70;;;;;;;;;;4898690;29;20028;-44
2021/07/03 07:19:13;;;;;;;1.50;0.77;;;;;;;;;;4898495;29;20040;-43
2021/07/03 07:21:38;;;;;;;2.38;0.90;;;;;;;;;;4898803;29;20023;-44
2021/07/03 07:24:04;;;;;;;1.02;0.70;;;;;;;;;;4898810;29;20060;-43
2021/07/03 07:26:30;;;;;;;4.18;1.10;;;;;;;;;;4898407;29;20108;-43
2021/07/03 07:28:55;;;;;;;8.10;1.35;;;;;;;;;;4898436;29;20115;-43
2021/07/03 07:31:21;;;;;;;2.25;0.80;;;;;;;;;;4898351;29;20372;-44
2021/07/03 07:33:46;;;;;;;1.23;0.80;;;;;;;;;;4898390;29;20488;-43
2021/07/03 07:36:12;;;;;;;1.35;0.90;;;;;;;;;;4898408;29;20017;-44
2021/07/03 07:38:37;;;;;;;1.25;0.90;;;;;;;;;;4898218;29;20526;-43
2021/07/03 07:41:03;;;;;;;1.48;0.70;;;;;;;;;;4898261;29;20431;-43
2021/07/03 07:43:28;;;;;;;4.00;0.80;;;;;;;;;;4898313;29;20048;-44
2021/07/03 07:45:55;;;;;;;2.03;0.98;;;;;;;;;;4898178;29;20460;-43
2021/07/03 07:48:21;;;;;;;2.17;0.90;;;;;;;;;;4897858;29;20067;-43
2021/07/03 07:50:46;;;;;;;1.05;0.95;;;;;;;;;;4898042;29;20020;-43
2021/07/03 07:53:12;;;;;;;2.33;1.23;;;;;;;;;;4898299;29;20036;-44
2021/07/03 07:55:37;;;;;;;2.38;0.98;;;;;;;;;;4897308;29;20484;-43
2021/07/03 07:58:03;;;;;;;1.10;0.90;;;;;;;;;;4897851;29;20036;-43
2021/07/03 08:00:28;;;;;;;1.67;0.65;;;;;;;;;;4898072;29;20185;-42
2021/07/03 08:02:54;;;;;;;1.00;0.73;;;;;;;;;;4898107;29;20479;-43
2021/07/03 08:05:20;;;;;;;0.60;0.52;;;;;;;;;;4897799;29;20033;-43
2021/07/03 08:07:45;;;;;;;1.13;0.68;;;;;;;;;;4897768;29;20068;-43
2021/07/03 08:10:11;;;;;;;1.25;0.90;;;;;;;;;;4897851;29;20024;-43
2021/07/03 08:12:37;;;;;;;4.30;2.00;;;;;;;;;;4897751;29;20395;-43
2021/07/03 08:15:04;;;;;;;4.20;0.98;;;;;;;;;;4897873;29;20032;-43
2021/07/03 08:17:29;;;;;;;1.45;0.75;;;;;;;;;;4897468;29;20060;-44
2021/07/03 08:19:54;;;;;;;1.70;1.13;;;;;;;;;;4897830;29;20059;-43
2021/07/03 08:22:20;;;;;;;1.27;0.85;;;;;;;;;;4897738;29;20113;-43
2021/07/03 08:24:45;;;;;;;4.00;0.80;;;;;;;;;;4897737;29;20059;-43
2021/07/03 08:27:10;;;;;;;5.07;0.70;;;;;;;;;;4897447;29;20457;-44
2021/07/03 08:29:36;;;;;;;1.15;0.60;;;;;;;;;;4897444;29;20028;-43
2021/07/03 08:32:01;;;;;;;5.95;0.80;;;;;;;;;;4896077;29;20164;-44
2021/07/03 08:34:27;;;;;;;1.15;0.65;;;;;;;;;;4897260;29;20043;-43
2021/07/03 08:36:52;;;;;;;1.33;0.80;;;;;;;;;;4897393;29;20119;-43
2021/07/03 08:39:17;;;;;;;2.22;0.82;;;;;;;;;;4897142;29;20135;-43
2021/07/03 08:41:43;;;;;;;1.58;1.02;;;;;;;;;;4897654;29;20036;-43
2021/07/03 08:44:10;;;;;;;1.35;0.70;;;;;;;;;;4897337;29;20049;-43
2021/07/03 08:46:36;;;;;;;0.93;0.70;;;;;;;;;;4897490;29;20055;-43
2021/07/03 08:49:03;;;;;;;1.35;0.60;;;;;;;;;;4897238;29;20464;-43
2021/07/03 08:51:28;;;;;;;0.90;0.70;;;;;;;;;;4897140;29;20032;-43
2021/07/03 08:53:54;;;;;;;3.30;0.93;;;;;;;;;;4895875;29;20044;-43
2021/07/03 08:56:19;;;;;;;1.15;0.70;;;;;;;;;;4897215;29;20032;-43
2021/07/03 08:58:45;;;;;;;1.10;0.77;;;;;;;;;;4897173;29;20496;-43
2021/07/03 09:01:10;;;;;;;2.03;0.52;;;;;;;;;;4896973;29;20123;-43
2021/07/03 09:03:36;;;;;;;0.60;0.60;;;;;;;;;;4897457;29;20031;-44
2021/07/03 09:06:05;;;;;;;2.67;1.00;;;;;;;;;;4898639;29;20496;-43
2021/07/03 09:08:31;;;;;;;2.42;0.80;;;;;;;;;;4901139;29;20032;-43
2021/07/03 09:11:02;;;;;;;1.23;0.63;;;;;;;;;;4900957;29;20021;-43
2021/07/03 09:13:28;;;;;;;1.60;0.90;;;;;;;;;;4901050;29;20420;-43
2021/07/03 09:15:53;;;;;;;1.23;0.93;;;;;;;;;;4900836;29;20027;-43
2021/07/03 09:18:19;;;;;;;0.50;0.50;;;;;;;;;;4900666;29;20033;-43
2021/07/03 09:20:53;;;;;;;1.83;0.80;;;;;;;;;;4900723;29;20108;-43
2021/07/03 09:23:19;;;;;;;2.67;0.50;;;;;;;;;;4900651;29;20043;-45
2021/07/03 09:25:46;;;;;;;2.58;0.68;;;;;;;;;;4900745;29;20031;-43
2021/07/03 09:28:16;;;;;;;0.82;0.52;;;;;;;;;;4900477;29;20028;-43
2021/07/03 09:30:42;;;;;;;0.50;0.40;;;;;;;;;;4900658;29;20021;-44
2021/07/03 09:33:07;;;;;;;2.45;0.65;;;;;;;;;;4900832;29;20436;-43
2021/07/03 09:35:33;;;;;;;0.47;0.47;;;;;;;;;;4899175;29;20029;-44
2021/07/03 09:37:59;;;;;;;2.05;0.82;;;;;;;;;;4900456;29;20035;-43
2021/07/03 09:40:27;;;;;;;1.50;0.70;;;;;;;;;;4900291;29;20472;-44
2021/07/03 09:42:52;;;;;;;2.03;0.70;;;;;;;;;;4900416;29;20036;-43
2021/07/03 09:45:18;;;;;;;2.20;0.75;;;;;;;;;;4900243;29;20024;-44
2021/07/03 09:47:43;;;;;;;1.17;1.00;;;;;;;;;;4900287;29;20028;-44
2021/07/03 09:50:11;;;;;;;1.10;0.77;;;;;;;;;;4900218;29;20047;-44
2021/07/03 09:52:38;;;;;;;1.95;0.90;;;;;;;;;;4900553;29;20033;-44
2021/07/03 09:55:07;;;;;;;0.80;0.80;;;;;;;;;;4900178;29;20037;-43
2021/07/03 09:57:36;;;;;;;1.25;0.63;;;;;;;;;;4899996;29;20064;-43
2021/07/03 10:00:04;;;;;;;0.82;0.73;;;;;;;;;;4900356;29;20047;-44
2021/07/03 10:02:36;;;;;;;0.77;0.70;;;;;;;;;;4900302;29;20388;-44
2021/07/03 10:05:01;;;;;;;2.47;0.80;;;;;;;;;;4900180;29;20024;-43
2021/07/03 10:07:34;;;;;;;0.75;0.70;;;;;;;;;;4900163;29;20036;-43
2021/07/03 10:10:03;;;;;;;1.13;0.80;;;;;;;;;;4900134;29;20033;-43
2021/07/03 10:12:35;;;;;;;0.80;0.70;;;;;;;;;;4899957;29;20089;-43
2021/07/03 10:15:00;;;;;;;1.40;0.50;;;;;;;;;;4899750;29;20040;-43
2021/07/03 10:17:27;;;;;;;2.10;0.85;;;;;;;;;;4897815;29;20464;-43
2021/07/03 10:19:53;;;;;;;1.20;0.85;;;;;;;;;;4898480;29;20055;-44
2021/07/03 10:22:23;;;;;;;0.60;0.60;;;;;;;;;;4899912;29;20361;-44
2021/07/03 10:24:53;;;;;;;0.60;0.60;;;;;;;;;;4899648;29;20045;-43
2021/07/03 10:27:28;;;;;;;0.65;0.55;;;;;;;;;;4899460;29;20028;-43
2021/07/03 10:29:55;;;;;;;4.03;0.77;;;;;;;;;;4899541;29;20080;-43
2021/07/03 10:32:22;;;;;;;0.90;0.63;;;;;;;;;;4899413;29;20021;-43
2021/07/03 10:34:47;;;;;;;2.10;0.57;;;;;;;;;;4899749;29;20040;-44
2021/07/03 10:37:15;;;;;;;3.47;0.90;;;;;;;;;;4899346;29;20017;-43
2021/07/03 10:39:40;;;;;;;1.90;0.80;;;;;;;;;;4899133;29;20453;-43
2021/07/03 10:42:06;;;;;;;0.93;0.73;;;;;;;;;;4899642;29;20028;-43
2021/07/03 10:44:36;;;;;;;3.63;0.77;;;;;;;;;;4899458;29;20503;-43
2021/07/03 10:47:05;;;;;;;0.90;0.73;;;;;;;;;;4898060;29;20105;-43
2021/07/03 10:49:31;;;;;;;1.77;0.82;;;;;;;;;;4899234;29;20043;-44
2021/07/03 10:51:56;;;;;;;1.15;0.70;;;;;;;;;;4899794;29;20453;-43
2021/07/03 10:54:24;;;;;;;0.60;0.60;;;;;;;;;;4899206;29;20446;-43
2021/07/03 10:57:00;;;;;;;1.98;0.90;;;;;;;;;;4899345;29;20522;-44
2021/07/03 10:59:25;;;;;;;1.05;0.68;;;;;;;;;;4899239;29;20037;-44
2021/07/03 11:01:51;;;;;;;0.60;0.60;;;;;;;;;;4898925;29;20031;-44
2021/07/03 11:04:18;;;;;;;1.52;0.63;;;;;;;;;;4899155;29;20111;-43
2021/07/03 11:06:45;;;;;;;0.80;0.77;;;;;;;;;;4898885;29;20017;-44
2021/07/03 11:09:20;;;;;;;1.95;0.93;;;;;;;;;;4899045;29;20032;-43
2021/07/03 11:11:45;;;;;;;1.27;0.70;;;;;;;;;;4899132;29;20032;-43
2021/07/03 11:14:16;;;;;;;3.22;1.02;;;;;;;;;;4898693;29;20059;-44
2021/07/03 11:16:41;;;;;;;2.95;0.50;;;;;;;;;;4898891;29;20052;-44
2021/07/03 11:19:07;;;;;;;0.68;0.65;;;;;;;;;;4898668;29;20699;-44
2021/07/03 11:21:32;;;;;;;3.17;0.70;;;;;;;;;;4898652;29;20035;-43
2021/07/03 11:23:58;;;;;;;2.08;0.75;;;;;;;;;;4898546;29;20536;-44
2021/07/03 11:26:24;;;;;;;1.00;0.82;;;;;;;;;;4898470;29;20024;-44
2021/07/03 11:28:58;;;;;;;1.65;0.68;;;;;;;;;;4898042;29;20119;-43
2021/07/03 11:31:23;;;;;;;0.60;0.60;;;;;;;;;;4898237;29;20041;-43
2021/07/03 11:33:52;;;;;;;1.23;0.60;;;;;;;;;;4898402;29;20084;-43
2021/07/03 11:36:17;;;;;;;0.88;0.80;;;;;;;;;;4898226;29;20039;-43
2021/07/03 11:38:43;;;;;;;2.08;1.10;;;;;;;;;;4898047;29;20048;-44
2021/07/03 11:41:08;;;;;;;0.85;0.60;;;;;;;;;;4898625;29;20033;-44
2021/07/03 11:43:33;;;;;;;1.25;0.70;;;;;;;;;;4898078;29;20036;-43
2021/07/03 11:46:01;;;;;;;0.75;0.63;;;;;;;;;;4898275;29;20029;-43
2021/07/03 11:48:27;;;;;;;2.58;0.90;;;;;;;;;;4898219;29;20024;-43
2021/07/03 11:51:24;;;;;;;1.02;0.93;;;;;;;;;;5145463;27;20950;-42
2021/07/03 11:53:52;;;;;;;0.73;0.60;;;;;;;;;;5110489;28;20032;-42
2021/07/03 11:56:18;;;;;;;0.80;0.77;;;;;;;;;;5110356;28;20020;-42
2021/07/03 11:58:44;;;;;;;1.17;0.80;;;;;;;;;;5110461;28;20355;-42
2021/07/03 12:01:15;;;;;;;4.88;0.80;;;;;;;;;;5110544;28;20022;-42
2021/07/03 12:03:42;;;;;;;1.02;0.70;;;;;;;;;;5110232;28;20031;-42
2021/07/03 12:06:08;;;;;;;0.93;0.65;;;;;;;;;;5110153;28;20597;-42
2021/07/03 12:08:35;;;;;;;0.30;0.20;;;;;;;;;;5110222;28;20053;-42
2021/07/03 12:11:02;;;;;;;0.70;0.70;;;;;;;;;;5110312;28;20028;-42
2021/07/03 12:13:28;;;;;;;1.15;0.95;;;;;;;;;;5109874;28;20085;-42
2021/07/03 12:15:59;;;;;;;1.00;0.90;;;;;;;;;;5110264;28;20027;-42
2021/07/03 12:18:28;;;;;;;2.53;0.68;;;;;;;;;;5110114;28;20032;-42
2021/07/03 12:21:03;;;;;;;1.95;0.80;;;;;;;;;;5110088;28;20030;-42
2021/07/03 12:23:28;;;;;;;0.90;0.60;;;;;;;;;;5110097;28;20043;-42
2021/07/03 12:25:54;;;;;;;1.23;0.70;;;;;;;;;;5109741;28;20020;-42
2021/07/03 12:28:19;;;;;;;0.50;0.50;;;;;;;;;;5109559;28;20038;-42
2021/07/03 12:30:46;;;;;;;1.70;0.68;;;;;;;;;;5109953;28;20066;-42
2021/07/03 12:33:12;;;;;;;2.75;0.93;;;;;;;;;;5109667;28;20028;-42
2021/07/03 12:35:41;;;;;;;1.20;0.80;;;;;;;;;;5109740;28;20020;-42
2021/07/03 12:38:07;;;;;;;1.20;0.88;;;;;;;;;;5109795;28;20020;-42
2021/07/03 12:40:37;;;;;;;3.78;1.27;;;;;;;;;;5109384;28;20016;-42
2021/07/03 12:43:03;;;;;;;0.60;0.60;;;;;;;;;;5109741;28;20020;-41
2021/07/03 12:45:28;;;;;;;1.10;0.82;;;;;;;;;;5109309;28;20377;-42
2021/07/03 12:48:06;;;;;;;1.27;0.90;;;;;;;;;;5109258;28;20035;-42
2021/07/03 12:50:31;;;;;;;1.38;0.82;;;;;;;;;;5108689;28;20532;-42
2021/07/03 12:53:04;;;;;;;1.27;1.00;;;;;;;;;;5109310;28;20024;-42
2021/07/03 12:55:41;;;;;;;0.70;0.60;;;;;;;;;;5109089;28;20496;-42
2021/07/03 12:58:21;;;;;;;0.82;0.80;;;;;;;;;;5109034;28;20126;-43
2021/07/03 13:00:47;;;;;;;0.80;0.80;;;;;;;;;;5104610;28;20028;-42
2021/07/03 13:03:13;;;;;;;1.25;0.90;;;;;;;;;;5095765;28;20047;-42
2021/07/03 13:05:39;;;;;;;1.42;0.73;;;;;;;;;;5095650;28;20032;-42
2021/07/03 13:08:04;;;;;;;0.25;0.25;;;;;;;;;;5095366;28;20463;-43
2021/07/03 13:10:30;;;;;;;1.52;1.10;;;;;;;;;;5095437;28;20040;-41
2021/07/03 13:12:55;;;;;;;1.50;1.00;;;;;;;;;;5095342;28;20017;-42
2021/07/03 13:15:20;;;;;;;0.90;0.80;;;;;;;;;;5095254;28;20036;-42
2021/07/03 13:17:46;;;;;;;0.80;0.70;;;;;;;;;;5095142;28;20416;-42
2021/07/03 13:20:11;;;;;;;2.00;0.90;;;;;;;;;;5095261;28;20038;-43
2021/07/03 13:22:37;;;;;;;1.00;0.90;;;;;;;;;;5095116;28;20470;-42
2021/07/03 13:25:02;;;;;;;3.38;1.25;;;;;;;;;;5095050;28;20031;-42
2021/07/03 13:27:28;;;;;;;1.45;0.70;;;;;;;;;;5094896;28;20437;-42
2021/07/03 13:29:53;;;;;;;2.90;1.05;;;;;;;;;;5094948;28;20043;-43
2021/07/03 13:32:18;;;;;;;1.67;1.00;;;;;;;;;;5093672;28;20107;-42
2021/07/03 13:34:44;;;;;;;1.02;0.90;;;;;;;;;;5094973;28;20110;-42
2021/07/03 13:37:09;;;;;;;1.20;0.77;;;;;;;;;;5095102;28;20027;-42
2021/07/03 13:39:35;;;;;;;0.73;0.73;;;;;;;;;;5094591;28;20047;-43
2021/07/03 13:42:00;;;;;;;1.20;0.93;;;;;;;;;;5095065;28;20035;-43
2021/07/03 13:44:25;;;;;;;1.58;1.13;;;;;;;;;;5094647;28;20016;-42
2021/07/03 13:46:51;;;;;;;5.38;1.05;;;;;;;;;;5094914;28;20517;-42
2021/07/03 13:49:16;;;;;;;1.15;1.05;;;;;;;;;;5094198;28;20047;-42
2021/07/03 13:51:42;;;;;;;1.95;0.98;;;;;;;;;;5094763;28;20154;-43
2021/07/03 13:54:07;;;;;;;1.48;0.85;;;;;;;;;;5094568;28;20027;-42
2021/07/03 13:56:32;;;;;;;0.82;0.82;;;;;;;;;;5093074;28;20020;-43
2021/07/03 13:58:58;;;;;;;0.85;0.80;;;;;;;;;;5110044;28;20073;-42
2021/07/03 14:01:23;;;;;;;2.05;0.75;;;;;;;;;;5094259;28;20020;-42
2021/07/03 14:03:50;;;;;;;0.50;0.43;;;;;;;;;;5093069;28;20427;-42
2021/07/03 14:06:16;;;;;;;2.67;1.23;;;;;;;;;;5094438;28;20027;-42
2021/07/03 14:08:42;;;;;;;3.88;1.13;;;;;;;;;;5094342;28;20098;-43
2021/07/03 14:11:08;;;;;;;0.50;0.45;;;;;;;;;;5094177;28;20016;-43
2021/07/03 14:13:33;;;;;;;1.55;0.88;;;;;;;;;;5092942;28;20080;-42
2021/07/03 14:15:59;;;;;;;2.58;1.52;;;;;;;;;;5094326;28;20016;-42
2021/07/03 14:18:24;;;;;;;0.98;0.80;;;;;;;;;;5094179;28;20498;-42
2021/07/03 14:20:49;;;;;;;1.13;0.98;;;;;;;;;;5109689;28;20120;-43
2021/07/03 14:23:15;;;;;;;0.60;0.60;;;;;;;;;;5093787;28;20020;-42
2021/07/03 14:25:40;;;;;;;0.95;0.80;;;;;;;;;;5094188;28;20024;-43
2021/07/03 14:28:06;;;;;;;0.77;0.57;;;;;;;;;;5093996;28;20478;-42
2021/07/03 14:30:31;;;;;;;2.05;0.60;;;;;;;;;;5093523;28;20036;-42
2021/07/03 14:32:56;;;;;;;2.35;0.52;;;;;;;;;;5092472;28;20036;-42
2021/07/03 14:35:22;;;;;;;1.08;0.80;;;;;;;;;;5093771;28;20027;-42
2021/07/03 14:37:47;;;;;;;3.28;0.80;;;;;;;;;;5093531;28;20502;-42
2021/07/03 14:40:13;;;;;;;1.40;0.82;;;;;;;;;;5093661;28;20028;-43